Time;durP1;ratioP1;P1;durP2;ratioP2;P2;SDS_P1;SDS_P2;PMS_P1;PMS_P2;Temp;Humidity;BMP_temperature;BMP_pressure;BME280_temperature;BME280_humidity;BME280_pressure;Samples;Min_cycle;Max_cycle;Signal;HPM_P1;HPM_P2
2022/05/05 00:02:24;;;;;;;;;;;;;;;11.26;56.49;101890.13;5062045;28;20302;-80
2022/05/05 00:04:49;;;;;;;;;;;;;;;11.24;56.23;101886.69;5040243;28;19913;-80
2022/05/05 00:07:14;;;;;;;;;;;;;;;11.22;56.33;101883.22;5064408;28;20515;-79
2022/05/05 00:09:39;;;;;;;;;;;;;;;11.19;56.06;101891.06;5063119;28;19912;-79
2022/05/05 00:14:49;;;;;;;;;;;;;;;11.18;56.77;101891.94;5059841;28;20275;-79
2022/05/05 00:17:14;;;;;;;;;;;;;;;11.14;57.10;101890.25;5060729;28;19924;-79
2022/05/05 00:19:41;;;;;;;;;;;;;;;11.11;57.20;101890.28;5045208;28;19931;-79
2022/05/05 00:22:07;;;;;;;;;;;;;;;11.07;57.29;101895.56;5062302;28;19931;-79
2022/05/05 00:24:33;;;;;;;;;;;;;;;11.04;57.63;101889.50;5063751;28;19912;-79
2022/05/05 00:26:58;;;;;;;;;;;;;;;11.04;57.60;101899.91;5061113;28;20013;-79
2022/05/05 00:29:24;;;;;;;;;;;;;;;11.02;57.31;101886.91;5063844;28;19927;-79
2022/05/05 00:31:50;;;;;;;;;;;;;;;11.05;57.29;101893.81;5063815;28;19916;-79
2022/05/05 00:34:15;;;;;;;;;;;;;;;11.04;57.84;101895.56;5060969;28;19923;-79
2022/05/05 00:36:41;;;;;;;;;;;;;;;11.03;57.56;101896.47;5060779;28;20020;-79
2022/05/05 00:39:07;;;;;;;;;;;;;;;11.03;57.57;101882.56;5061559;28;19967;-79
2022/05/05 00:41:36;;;;;;;;;;;;;;;11.04;57.64;101887.78;5061378;28;19966;-79
2022/05/05 00:44:02;;;;;;;;;;;;;;;11.06;57.77;101895.56;5057364;28;20024;-79
2022/05/05 00:46:28;;;;;;;;;;;;;;;11.08;57.58;101889.47;5056590;28;19912;-79
2022/05/05 00:48:54;;;;;;;;;;;;;;;11.08;57.75;101886.84;5059956;28;19912;-79
2022/05/05 00:51:20;;;;;;;;;;;;;;;11.08;57.07;101885.97;5040833;28;19920;-79
2022/05/05 00:53:45;;;;;;;;;;;;;;;11.08;57.42;101886.84;5059205;28;19995;-80
2022/05/05 00:56:13;;;;;;;;;;;;;;;11.07;57.52;101879.94;5061615;28;19935;-80
2022/05/05 00:58:39;;;;;;;;;;;;;;;11.08;57.23;101875.56;5063247;28;19944;-80
2022/05/05 01:01:04;;;;;;;;;;;;;;;11.08;57.24;101876.44;5059933;28;20323;-79
2022/05/05 01:03:33;;;;;;;;;;;;;;;11.08;56.97;101876.44;5057811;28;20281;-79
2022/05/05 01:05:58;;;;;;;;;;;;;;;11.05;57.56;101866.06;5058837;28;19927;-79
2022/05/05 01:08:24;;;;;;;;;;;;;;;11.02;58.15;101871.28;5060589;28;19920;-80
2022/05/05 01:10:49;;;;;;;;;;;;;;;11.00;57.77;101877.41;5059355;28;19995;-79
2022/05/05 01:13:14;;;;;;;;;;;;;;;10.97;57.84;101883.50;5060801;28;19912;-79
2022/05/05 01:15:39;;;;;;;;;;;;;;;10.93;58.10;101871.41;5041515;28;20402;-79
2022/05/05 01:18:05;;;;;;;;;;;;;;;10.92;58.00;101874.88;5056597;28;19916;-79
2022/05/05 01:20:30;;;;;;;;;;;;;;;10.87;58.03;101874.06;5060263;28;19923;-79
2022/05/05 01:22:55;;;;;;;;;;;;;;;10.83;57.74;101874.97;5058281;28;20011;-79
2022/05/05 01:28:12;;;;;;;;;;;;;;;10.72;58.27;101878.56;5058847;28;19927;-80
2022/05/05 01:30:38;;;;;;;;;;;;;;;10.68;58.65;101876.84;5058281;28;19920;-79
2022/05/05 01:33:14;;;;;;;;;;;;;;;10.65;58.69;101884.69;5061930;28;19916;-79
2022/05/05 01:35:39;;;;;;;;;;;;;;;10.59;59.17;101877.78;5059642;28;20102;-79
2022/05/05 01:38:06;;;;;;;;;;;;;;;10.53;59.11;101871.78;5062399;28;20705;-79
2022/05/05 01:40:32;;;;;;;;;;;;;;;10.50;58.99;101871.81;5059509;28;19932;-79
2022/05/05 01:42:57;;;;;;;;;;;;;;;10.46;58.97;101882.22;5058262;28;19923;-79
2022/05/05 01:45:22;;;;;;;;;;;;;;;10.42;59.03;101872.72;5056205;28;20022;-79
2022/05/05 01:47:47;;;;;;;;;;;;;;;10.40;58.97;101876.22;5058550;28;19920;-79
2022/05/05 01:50:12;;;;;;;;;;;;;;;10.35;59.26;101878.84;5058259;28;19912;-79
2022/05/05 01:52:37;;;;;;;;;;;;;;;10.32;59.32;101881.47;5059952;28;19921;-79
2022/05/05 01:55:04;;;;;;;;;;;;;;;10.29;59.04;101886.69;5059124;28;20363;-79
2022/05/05 01:57:29;;;;;;;;;;;;;;;10.25;59.38;101893.66;5059730;28;19923;-79
2022/05/05 01:59:54;;;;;;;;;;;;;;;10.19;59.54;101891.09;5058367;28;21243;-79
2022/05/05 02:02:19;;;;;;;;;;;;;;;10.14;59.72;101891.13;5056652;28;20011;-79
2022/05/05 02:04:44;;;;;;;;;;;;;;;10.12;58.89;101885.06;5038313;28;20006;-79
2022/05/05 02:07:10;;;;;;;;;;;;;;;10.08;59.49;101879.91;5058243;28;20256;-80
2022/05/05 02:09:35;;;;;;;;;;;;;;;10.01;59.39;101884.28;5059030;28;19957;-79
2022/05/05 02:12:00;;;;;;;;;;;;;;;9.97;59.59;101887.78;5059885;28;19944;-79
2022/05/05 02:14:25;;;;;;;;;;;;;;;9.94;59.69;101895.59;5060001;28;20087;-79
2022/05/05 02:16:51;;;;;;;;;;;;;;;9.91;59.98;101898.19;5058937;28;19927;-79
2022/05/05 02:19:16;;;;;;;;;;;;;;;9.89;60.01;101898.22;5059616;28;19939;-79
2022/05/05 02:21:42;;;;;;;;;;;;;;;9.86;60.19;101887.84;5058015;28;20307;-79
2022/05/05 02:24:07;;;;;;;;;;;;;;;9.86;59.49;101891.31;5058105;28;19955;-79
2022/05/05 02:26:32;;;;;;;;;;;;;;;9.83;59.56;101886.13;5060726;28;19916;-79
2022/05/05 02:28:57;;;;;;;;;;;;;;;9.78;59.90;101892.22;5061808;28;19999;-79
2022/05/05 02:31:23;;;;;;;;;;;;;;;9.74;60.27;101891.34;5063893;28;19955;-79
2022/05/05 02:33:48;;;;;;;;;;;;;;;9.71;60.27;101891.41;5065046;28;19974;-80
2022/05/05 02:38:57;;;;;;;;;;;;;;;9.65;60.54;101897.47;5060452;28;19959;-79
2022/05/05 02:41:22;;;;;;;;;;;;;;;9.62;60.45;101901.81;5061048;28;19947;-79
2022/05/05 02:43:47;;;;;;;;;;;;;;;9.57;60.45;101897.50;5060526;28;20054;-79
2022/05/05 02:46:12;;;;;;;;;;;;;;;9.52;60.50;101896.69;5059429;28;19912;-79
2022/05/05 02:48:38;;;;;;;;;;;;;;;9.51;60.15;101902.75;5061578;28;19912;-79
2022/05/05 02:51:03;;;;;;;;;;;;;;;9.48;60.20;101894.97;5061597;28;19970;-79
2022/05/05 02:56:12;;;;;;;;;;;;;;;9.43;60.70;101901.91;5063019;28;20035;-78
2022/05/05 02:58:37;;;;;;;;;;;;;;;9.41;60.82;101903.63;5063976;28;20014;-79
2022/05/05 03:01:02;;;;;;;;;;;;;;;9.44;61.22;101898.44;5061102;28;20009;-79
2022/05/05 03:03:28;;;;;;;;;;;;;;;9.44;61.13;101897.59;5060866;28;20229;-79
2022/05/05 03:05:53;;;;;;;;;;;;;;;9.44;61.04;101893.22;5043547;28;19965;-79
2022/05/05 03:08:18;;;;;;;;;;;;;;;9.44;61.03;101897.59;5060874;28;20258;-79
2022/05/05 03:10:43;;;;;;;;;;;;;;;9.44;61.17;101898.44;5062149;28;19935;-79
2022/05/05 03:13:08;;;;;;;;;;;;;;;9.46;60.60;101901.03;5063441;28;19981;-79
2022/05/05 03:15:34;;;;;;;;;;;;;;;9.45;60.65;101907.94;5038096;28;19916;-79
2022/05/05 03:17:59;;;;;;;;;;;;;;;9.41;61.02;101903.63;5061993;28;20027;-79
2022/05/05 03:20:24;;;;;;;;;;;;;;;9.38;61.02;101903.66;5058061;28;19931;-79
2022/05/05 03:22:49;;;;;;;;;;;;;;;9.35;60.88;101899.31;5063024;28;19928;-79
2022/05/05 03:25:15;;;;;;;;;;;;;;;9.33;61.76;101902.81;5064138;28;19916;-80
2022/05/05 03:27:40;;;;;;;;;;;;;;;9.32;61.66;101903.69;5061442;28;19919;-79
2022/05/05 03:30:05;;;;;;;;;;;;;;;9.31;61.85;101909.75;5058465;28;19951;-79
2022/05/05 03:32:32;;;;;;;;;;;;;;;9.26;62.23;101910.59;5060120;28;19919;-79
2022/05/05 03:34:58;;;;;;;;;;;;;;;9.21;62.65;101907.19;5059501;28;19956;-79
2022/05/05 03:37:23;;;;;;;;;;;;;;;9.20;62.00;101905.44;5059305;28;20343;-79
2022/05/05 03:39:48;;;;;;;;;;;;;;;9.19;62.69;101913.22;5061200;28;19927;-79
2022/05/05 03:42:14;;;;;;;;;;;;;;;9.20;62.54;101913.25;5040940;28;20370;-79
2022/05/05 03:44:39;;;;;;;;;;;;;;;9.23;62.73;101917.56;5056958;28;20344;-79
2022/05/05 03:47:05;;;;;;;;;;;;;;;9.23;62.34;101910.63;5057479;28;19963;-79
2022/05/05 03:49:30;;;;;;;;;;;;;;;9.25;61.84;101914.06;5060253;28;19999;-79
2022/05/05 03:51:58;;;;;;;;;;;;;;;9.26;61.73;101915.81;5060817;28;20053;-79
2022/05/05 03:54:24;;;;;;;;;;;;;;;9.26;61.91;101915.81;5059159;28;20060;-79
2022/05/05 03:56:49;;;;;;;;;;;;;;;9.29;61.67;101919.25;5062143;28;20422;-79
2022/05/05 03:59:14;;;;;;;;;;;;;;;9.28;62.23;101923.59;5063274;28;19918;-79
2022/05/05 04:01:39;;;;;;;;;;;;;;;9.29;62.01;101921.84;5058081;28;20383;-79
2022/05/05 04:04:04;;;;;;;;;;;;;;;9.27;62.11;101919.28;5058699;28;19966;-79
2022/05/05 04:06:30;;;;;;;;;;;;;;;9.29;62.34;101924.44;5059870;28;20317;-79
2022/05/05 04:08:55;;;;;;;;;;;;;;;9.29;62.13;101921.84;5059303;28;19920;-78
2022/05/05 04:11:20;;;;;;;;;;;;;;;9.27;62.46;101919.28;5059206;28;19920;-79
2022/05/05 04:13:46;;;;;;;;;;;;;;;9.26;62.87;101931.38;5058079;28;19920;-79
2022/05/05 04:16:11;;;;;;;;;;;;;;;9.26;62.87;101931.38;5060138;28;19986;-79
2022/05/05 04:18:36;;;;;;;;;;;;;;;9.26;62.38;101925.34;5059270;28;20406;-79
2022/05/05 04:21:02;;;;;;;;;;;;;;;9.23;63.18;101936.56;5062390;28;19917;-79
2022/05/05 04:23:27;;;;;;;;;;;;;;;9.23;63.51;101936.56;5061577;28;19983;-79
2022/05/05 04:25:52;;;;;;;;;;;;;;;9.24;62.71;101938.31;5064139;28;19920;-79
2022/05/05 04:28:17;;;;;;;;;;;;;;;9.21;63.02;101933.16;5063167;28;19912;-79
2022/05/05 04:30:43;;;;;;;;;;;;;;;9.23;62.69;101940.91;5061656;28;20113;-79
2022/05/05 04:33:08;;;;;;;;;;;;;;;9.23;62.91;101940.91;5065175;28;20291;-79
2022/05/05 04:35:36;;;;;;;;;;;;;;;9.21;62.91;101948.72;5062293;28;19927;-79
2022/05/05 04:38:01;;;;;;;;;;;;;;;9.19;63.38;101952.19;5067471;28;19912;-79
2022/05/05 04:40:26;;;;;;;;;;;;;;;9.18;63.37;101953.91;5059960;28;19962;-79
2022/05/05 04:42:52;;;;;;;;;;;;;;;9.19;63.41;101949.56;5060868;28;19931;-81
2022/05/05 04:45:17;;;;;;;;;;;;;;;9.19;63.53;101954.78;5059969;28;19932;-78
2022/05/05 04:47:43;;;;;;;;;;;;;;;9.19;63.80;101954.78;5060449;28;19916;-79
2022/05/05 04:50:08;;;;;;;;;;;;;;;9.18;63.45;101956.50;5060626;28;19921;-78
2022/05/05 04:52:33;;;;;;;;;;;;;;;9.20;63.76;101961.69;5063898;28;20007;-79
2022/05/05 04:54:59;;;;;;;;;;;;;;;9.20;64.00;101961.69;5061418;28;19951;-79
2022/05/05 04:57:24;;;;;;;;;;;;;;;9.23;64.01;101962.53;5061822;28;19974;-79
2022/05/05 04:59:50;;;;;;;;;;;;;;;9.27;63.79;101966.88;5063314;28;20359;-79
2022/05/05 05:02:15;;;;;;;;;;;;;;;9.31;64.11;101972.91;5062905;28;19920;-79
2022/05/05 05:04:40;;;;;;;;;;;;;;;9.34;63.80;101972.91;5060945;28;19912;-79
2022/05/05 05:07:06;;;;;;;;;;;;;;;9.39;64.13;101967.72;5059016;28;20428;-79
2022/05/05 05:09:31;;;;;;;;;;;;;;;9.42;64.39;101967.69;5062370;28;19919;-79
2022/05/05 05:11:56;;;;;;;;;;;;;;;9.46;64.67;101971.16;5060435;28;20669;-79
2022/05/05 05:14:21;;;;;;;;;;;;;;;9.48;64.96;101970.28;5060509;28;19924;-79
2022/05/05 05:16:47;;;;;;;;;;;;;;;9.50;65.00;101971.16;5057000;28;19924;-79
2022/05/05 05:19:12;;;;;;;;;;;;;;;9.53;64.91;101971.16;5057214;28;19927;-79
2022/05/05 05:21:37;;;;;;;;;;;;;;;9.57;64.90;101978.03;5059165;28;19921;-79
2022/05/05 05:24:02;;;;;;;;;;;;;;;9.63;64.93;101979.78;5060423;28;19912;-79
2022/05/05 05:26:28;;;;;;;;;;;;;;;9.68;65.25;101979.75;5061087;28;19920;-79
2022/05/05 05:28:53;;;;;;;;;;;;;;;9.73;65.17;101983.22;5059345;28;20338;-79
2022/05/05 05:31:19;;;;;;;;;;;;;;;9.77;65.04;101979.72;5060649;28;20331;-79
2022/05/05 05:33:45;;;;;;;;;;;;;;;9.81;65.15;101981.44;5060899;28;20427;-79
2022/05/05 05:36:10;;;;;;;;;;;;;;;9.85;64.82;101982.28;5059987;28;20016;-79
2022/05/05 05:38:35;;;;;;;;;;;;;;;9.91;65.16;101982.25;5062349;28;19916;-79
2022/05/05 05:41:01;;;;;;;;;;;;;;;9.93;65.30;101990.03;5064712;28;20295;-79
2022/05/05 05:43:26;;;;;;;;;;;;;;;9.96;65.56;101990.03;5061839;28;19920;-79
2022/05/05 05:45:51;;;;;;;;;;;;;;;9.97;65.23;101987.44;5065998;28;20356;-79
2022/05/05 05:48:16;;;;;;;;;;;;;;;9.99;65.89;101990.00;5065353;28;19938;-79
2022/05/05 05:50:41;;;;;;;;;;;;;;;9.99;66.03;101996.06;5061471;28;19935;-79
2022/05/05 05:53:06;;;;;;;;;;;;;;;10.00;65.78;101996.94;5066813;28;19912;-79
2022/05/05 05:55:32;;;;;;;;;;;;;;;10.01;65.85;101996.06;5066508;28;19912;-79
2022/05/05 05:57:57;;;;;;;;;;;;;;;10.06;65.50;101996.94;5060258;28;19928;-79
2022/05/05 06:00:22;;;;;;;;;;;;;;;10.13;65.63;102000.34;5066687;28;19916;-79
2022/05/05 06:05:32;;;;;;;;;;;;;;;10.26;65.39;101996.81;5064887;28;19960;-79
2022/05/05 06:07:58;;;;;;;;;;;;;;;10.32;65.66;101995.91;5070833;28;20325;-79
2022/05/05 06:10:23;;;;;;;;;;;;;;;10.38;65.46;102005.41;5068174;28;19912;-79
2022/05/05 06:12:49;;;;;;;;;;;;;;;10.45;65.43;102005.38;5068042;28;19963;-79
2022/05/05 06:15:14;;;;;;;;;;;;;;;10.54;64.94;102009.66;5066773;28;19982;-79
2022/05/05 06:17:40;;;;;;;;;;;;;;;10.60;65.06;102008.75;5065411;28;19924;-79
2022/05/05 06:20:05;;;;;;;;;;;;;;;10.68;65.15;102006.09;5064051;28;19959;-79
2022/05/05 06:22:31;;;;;;;;;;;;;;;10.77;64.64;102008.66;5048633;28;19947;-79
2022/05/05 06:24:56;;;;;;;;;;;;;;;10.84;64.71;102006.84;5066541;28;19916;-79
2022/05/05 06:27:21;;;;;;;;;;;;;;;10.92;65.16;102002.47;5059584;28;19912;-79
2022/05/05 06:29:46;;;;;;;;;;;;;;;11.01;64.85;101998.91;5061016;28;20324;-79
2022/05/05 06:32:12;;;;;;;;;;;;;;;11.11;64.50;102002.28;5068081;28;19912;-79
2022/05/05 06:34:37;;;;;;;;;;;;;;;11.19;63.95;102000.47;5066948;28;20456;-79
2022/05/05 06:37:03;;;;;;;;;;;;;;;11.28;63.54;101994.31;5073713;28;19930;-79
2022/05/05 06:39:28;;;;;;;;;;;;;;;11.37;63.12;102002.00;5069775;28;19912;-79
2022/05/05 06:41:53;;;;;;;;;;;;;;;11.48;62.74;102008.00;5065064;28;19918;-79
2022/05/05 06:44:18;;;;;;;;;;;;;;;11.60;62.58;102008.72;5067757;28;20322;-79
2022/05/05 06:46:44;;;;;;;;;;;;;;;11.71;62.36;102003.41;5063532;28;20379;-79
2022/05/05 06:49:10;;;;;;;;;;;;;;;11.80;61.89;102008.50;5066877;28;19919;-79
2022/05/05 06:51:36;;;;;;;;;;;;;;;11.88;60.95;102009.28;5066429;28;19913;-79
2022/05/05 06:54:01;;;;;;;;;;;;;;;11.97;60.40;102009.16;5069675;28;19936;-79
2022/05/05 06:56:27;;;;;;;;;;;;;;;12.07;60.39;102014.28;5068801;28;20394;-79
2022/05/05 06:58:52;;;;;;;;;;;;;;;12.19;60.25;102019.34;5068000;28;19913;-79
2022/05/05 07:06:45;;;;;;;;;;;;;;;12.56;59.18;102018.81;5064139;28;20335;-79
2022/05/05 07:11:54;;;;;;;;;;;;;;;12.85;59.02;102027.94;5061956;28;19938;-79
2022/05/05 07:14:19;;;;;;;;;;;;;;;12.98;58.72;102031.22;5066328;28;19912;-79
2022/05/05 07:16:45;;;;;;;;;;;;;;;13.08;58.67;102036.25;5071363;28;19923;-79
2022/05/05 07:19:10;;;;;;;;;;;;;;;13.22;58.47;102039.53;5055749;28;20007;-79
2022/05/05 07:21:37;;;;;;;;;;;;;;;13.33;58.38;102047.16;5069206;28;20006;-79
2022/05/05 07:24:03;;;;;;;;;;;;;;;13.41;58.31;102047.06;5064789;28;19920;-80
2022/05/05 07:26:28;;;;;;;;;;;;;;;13.49;58.25;102050.41;5063828;28;19920;-79
2022/05/05 07:28:53;;;;;;;;;;;;;;;13.57;58.26;102051.13;5053863;28;20387;-79
2022/05/05 07:31:19;;;;;;;;;;;;;;;13.63;57.97;102047.53;5056989;28;19912;-79
2022/05/05 07:33:44;;;;;;;;;;;;;;;13.69;58.19;102054.38;5067453;28;19939;-79
2022/05/05 07:36:09;;;;;;;;;;;;;;;13.77;58.38;102052.47;5065043;28;20375;-79
2022/05/05 07:38:35;;;;;;;;;;;;;;;13.88;57.96;102052.25;5067519;28;19912;-79
2022/05/05 07:41:00;;;;;;;;;;;;;;;13.95;57.72;102051.25;5069002;28;19912;-79
2022/05/05 07:43:25;;;;;;;;;;;;;;;14.03;57.92;102048.47;5066164;28;19971;-79
2022/05/05 07:45:50;;;;;;;;;;;;;;;14.13;57.93;102051.75;5067302;28;19921;-79
2022/05/05 07:48:16;;;;;;;;;;;;;;;14.19;57.73;102064.69;5067313;28;19916;-79
2022/05/05 07:50:42;;;;;;;;;;;;;;;14.21;57.90;102057.69;5057837;28;19912;-79
2022/05/05 07:53:07;;;;;;;;;;;;;;;14.25;57.85;102059.34;5065398;28;19974;-79
2022/05/05 07:55:32;;;;;;;;;;;;;;;14.28;57.81;102059.28;5065660;28;19912;-79
2022/05/05 07:57:57;;;;;;;;;;;;;;;14.32;57.69;102063.56;5058098;28;19970;-79
2022/05/05 08:00:23;;;;;;;;;;;;;;;14.38;57.41;102065.19;5062449;28;19912;-78
2022/05/05 08:02:48;;;;;;;;;;;;;;;14.42;57.39;102059.84;5063345;28;19917;-78
2022/05/05 08:05:13;;;;;;;;;;;;;;;14.50;57.44;102070.13;5053117;28;19971;-80
2022/05/05 08:07:45;;;;;;;;;;;;;;;14.57;57.44;102065.63;5060309;28;19919;-80
2022/05/05 08:10:11;;;;;;;;;;;;;;;14.65;57.32;102073.28;5069058;28;20050;-80
2022/05/05 08:12:36;;;;;;;;;;;;;;;14.69;56.98;102070.59;5063508;28;20007;-79
2022/05/05 08:15:02;;;;;;;;;;;;;;;14.76;56.77;102073.09;5064951;28;21711;-79
2022/05/05 08:17:28;;;;;;;;;;;;;;;14.80;57.13;102072.13;5063274;28;19916;-79
2022/05/05 08:19:53;;;;;;;;;;;;;;;14.86;56.73;102074.56;5063962;28;19935;-79
2022/05/05 08:22:19;;;;;;;;;;;;;;;14.89;56.78;102077.13;5063563;28;19918;-79
2022/05/05 08:30:12;;;;;;;;;;;;;;;15.12;56.78;102080.94;5061973;28;20382;-78
2022/05/05 08:32:37;;;;;;;;;;;;;;;15.23;56.58;102083.31;5061572;28;19913;-79
2022/05/05 08:35:03;;;;;;;;;;;;;;;15.34;56.18;102083.88;5057598;28;19927;-79
2022/05/05 08:37:28;;;;;;;;;;;;;;;15.45;56.15;102091.47;5067308;28;19917;-79
2022/05/05 08:39:53;;;;;;;;;;;;;;;15.52;55.63;102094.78;5064743;28;20015;-78
2022/05/05 08:42:18;;;;;;;;;;;;;;;15.49;55.42;102093.13;5063675;28;20363;-79
2022/05/05 08:44:44;;;;;;;;;;;;;;;15.52;55.71;102095.66;5060312;28;19951;-78
2022/05/05 08:47:10;;;;;;;;;;;;;;;15.61;55.49;102091.94;5059495;28;19912;-78
2022/05/05 08:49:37;;;;;;;;;;;;;;;15.70;55.23;102094.31;5058822;28;19935;-79
2022/05/05 08:52:03;;;;;;;;;;;;;;;15.78;55.19;102091.47;5067234;28;19916;-78
2022/05/05 08:54:31;;;;;;;;;;;;;;;15.87;54.73;102096.50;5062332;28;19989;-78
2022/05/05 08:56:56;;;;;;;;;;;;;;;15.97;54.69;102096.25;5067298;28;19916;-78
2022/05/05 08:59:22;;;;;;;;;;;;;;;16.01;54.40;102101.34;5066394;28;19916;-79
2022/05/05 09:01:47;;;;;;;;;;;;;;;16.00;54.82;102101.41;5059551;28;19912;-79
2022/05/05 09:04:12;;;;;;;;;;;;;;;16.02;54.38;102105.69;5061110;28;19924;-79
2022/05/05 09:06:46;;;;;;;;;;;;;;;16.00;54.81;102104.03;5062032;28;20102;-80
2022/05/05 09:09:31;;;;;;;;;;;;;;;16.00;55.08;102104.03;5059733;28;19920;-80
2022/05/05 09:12:06;;;;;;;;;;;;;;;16.00;54.86;102109.28;5059675;28;20677;-80
2022/05/05 09:14:35;;;;;;;;;;;;;;;16.01;54.80;102111.00;5060991;28;19971;-80
2022/05/05 09:17:04;;;;;;;;;;;;;;;16.05;54.75;102110.03;5059963;28;19974;-82
2022/05/05 09:19:33;;;;;;;;;;;;;;;16.03;54.79;102111.81;5059100;28;20398;-80
2022/05/05 09:22:01;;;;;;;;;;;;;;;15.95;54.67;102113.78;5041482;28;19920;-80
2022/05/05 09:24:35;;;;;;;;;;;;;;;15.88;54.86;102111.34;5059308;28;20015;-80
2022/05/05 09:27:18;;;;;;;;;;;;;;;15.87;55.02;102114.00;5059188;28;19918;-80
2022/05/05 09:29:56;;;;;;;;;;;;;;;15.87;54.98;102114.88;5059705;28;20537;-79
2022/05/05 09:32:25;;;;;;;;;;;;;;;15.86;54.66;102118.41;5058552;28;20015;-78
2022/05/05 09:34:58;;;;;;;;;;;;;;;15.80;54.94;102113.28;5062144;28;20469;-78
2022/05/05 09:37:23;;;;;;;;;;;;;;;15.80;54.99;102108.03;5063780;28;19943;-79
2022/05/05 09:39:55;;;;;;;;;;;;;;;15.83;55.17;102117.56;5062829;28;20344;-79
2022/05/05 09:42:36;;;;;;;;;;;;;;;15.86;55.01;102117.53;5063190;28;19917;-79
2022/05/05 09:45:16;;;;;;;;;;;;;;;15.92;55.03;102123.47;5064659;28;19967;-79
2022/05/05 09:47:52;;;;;;;;;;;;;;;16.03;54.52;102122.31;5048045;28;19920;-78
2022/05/05 09:50:22;;;;;;;;;;;;;;;16.11;54.67;102119.47;5064053;28;20409;-77
2022/05/05 09:58:19;;;;;;;;;;;;;;;16.36;54.10;102127.50;5063255;28;20102;-79
2022/05/05 10:00:55;;;;;;;;;;;;;;;16.39;53.76;102128.25;5056499;28;20347;-79
2022/05/05 10:06:29;;;;;;;;;;;;;;;16.52;53.79;102127.88;5059752;28;20383;-77
2022/05/05 10:08:55;;;;;;;;;;;;;;;16.65;53.61;102128.38;5060919;28;19970;-79
2022/05/05 10:11:22;;;;;;;;;;;;;;;16.77;53.55;102124.53;5062498;28;20409;-80
2022/05/05 10:13:48;;;;;;;;;;;;;;;16.91;53.35;102121.47;5062337;28;20047;-78
2022/05/05 10:16:17;;;;;;;;;;;;;;;17.04;53.21;102119.31;5061883;28;20000;-79
2022/05/05 10:18:42;;;;;;;;;;;;;;;17.17;53.46;102125.88;5066332;28;19958;-79
2022/05/05 10:21:37;;;;;;;;;;;;;;;17.26;53.25;102119.44;5060623;28;20300;-79
2022/05/05 10:24:08;;;;;;;;;;;;;;;17.31;53.12;102121.94;5010728;28;19914;-79
2022/05/05 10:26:33;;;;;;;;;;;;;;;17.27;52.79;102115.91;5061484;28;20017;-78
2022/05/05 10:28:59;;;;;;;;;;;;;;;17.24;52.36;102116.03;5063940;28;19940;-79
2022/05/05 10:31:30;;;;;;;;;;;;;;;17.26;52.69;102115.06;5064492;28;19923;-77
2022/05/05 10:34:06;;;;;;;;;;;;;;;17.29;52.32;102121.97;5065559;28;20318;-78
2022/05/05 10:36:32;;;;;;;;;;;;;;;17.28;52.42;102122.91;5058696;28;19964;-78
2022/05/05 10:38:57;;;;;;;;;;;;;;;17.21;52.42;102124.03;5063199;28;19951;-78
2022/05/05 10:41:36;;;;;;;;;;;;;;;17.14;51.78;102124.22;5066497;28;19920;-79
2022/05/05 10:44:13;;;;;;;;;;;;;;;17.10;52.26;102119.13;5061121;28;19931;-79
2022/05/05 10:47:00;;;;;;;;;;;;;;;17.11;52.85;102119.06;5061445;28;19927;-78
2022/05/05 10:49:32;;;;;;;;;;;;;;;17.14;52.46;102121.59;5064495;28;19970;-78
2022/05/05 10:52:09;;;;;;;;;;;;;;;17.24;52.49;102126.56;5061228;28;19920;-79
2022/05/05 10:54:38;;;;;;;;;;;;;;;17.33;52.23;102128.88;5059198;28;19971;-79
2022/05/05 10:57:22;;;;;;;;;;;;;;;17.35;51.68;102126.19;5062543;28;19960;-78
2022/05/05 11:00:06;;;;;;;;;;;;;;;17.43;51.26;102122.38;5060478;28;19955;-78
2022/05/05 11:02:32;;;;;;;;;;;;;;;17.50;51.15;102123.06;5065831;28;19912;-78
2022/05/05 11:05:17;;;;;;;;;;;;;;;17.54;51.44;102124.63;5063634;28;19912;-79
2022/05/05 11:07:43;;;;;;;;;;;;;;;17.57;50.91;102123.69;5063794;28;20042;-78
2022/05/05 11:10:28;;;;;;;;;;;;;;;17.65;49.91;102124.28;5063779;28;20392;-78
2022/05/05 11:12:53;;;;;;;;;;;;;;;17.72;50.86;102127.53;5063712;28;20037;-80
2022/05/05 11:23:44;;;;;;;;;;;;;;;18.07;50.55;102116.69;5046466;28;19928;-79
2022/05/05 11:26:10;;;;;;;;;;;;;;;18.03;50.53;102121.19;5045921;28;21733;-78
2022/05/05 11:28:36;;;;;;;;;;;;;;;17.93;49.95;102120.66;5046658;28;20374;-79
2022/05/05 11:31:02;;;;;;;;;;;;;;;17.86;50.35;102119.16;5047726;28;19912;-79
2022/05/05 11:33:28;;;;;;;;;;;;;;;17.83;50.38;102124.53;5045903;28;20043;-79
2022/05/05 11:35:55;;;;;;;;;;;;;;;17.75;50.10;102117.78;5046509;28;20672;-79
2022/05/05 11:38:21;;;;;;;;;;;;;;;17.75;50.63;102123.06;5030718;28;19921;-80
2022/05/05 11:40:47;;;;;;;;;;;;;;;17.71;49.66;102120.56;5051048;28;19921;-79
2022/05/05 11:45:56;;;;;;;;;;;;;;;17.72;49.39;102127.53;5041102;28;20126;-79
2022/05/05 11:48:21;;;;;;;;;;;;;;;17.70;50.21;102124.97;5043520;28;20679;-78
2022/05/05 11:50:46;;;;;;;;;;;;;;;17.68;49.57;102121.53;5044344;28;19953;-79
2022/05/05 11:53:18;;;;;;;;;;;;;;;17.67;49.61;102122.44;5044831;28;19960;-79
2022/05/05 11:55:45;;;;;;;;;;;;;;;17.67;50.10;102117.19;5046118;28;20004;-82
2022/05/05 12:01:37;;;;;;;;;;;;;;;17.63;49.52;102112.94;5039250;28;19959;-78
2022/05/05 12:04:00;;;;;;;;;;;;;;;17.65;49.78;102107.63;5042945;28;20026;-77
2022/05/05 12:06:25;;;;;;;;;;;;;;;17.66;49.90;102112.00;5042820;28;19924;-77
2022/05/05 12:08:50;;;;;;;;;;;;;;;17.69;49.99;102109.22;5046460;28;19927;-78
2022/05/05 12:11:15;;;;;;;;;;;;;;;17.69;50.03;102106.59;5046228;28;19916;-77
2022/05/05 12:13:41;;;;;;;;;;;;;;;17.71;49.68;102108.28;5042490;28;19916;-79
2022/05/05 12:16:06;;;;;;;;;;;;;;;17.79;49.36;102104.50;5045875;28;21323;-79
2022/05/05 12:18:31;;;;;;;;;;;;;;;17.93;49.46;102104.88;5042300;28;19916;-78
2022/05/05 12:20:57;;;;;;;;;;;;;;;18.02;48.77;102101.91;5058726;28;19939;-79
2022/05/05 12:23:24;;;;;;;;;;;;;;;18.10;49.63;102111.31;5061025;28;19920;-77
2022/05/05 12:25:49;;;;;;;;;;;;;;;18.07;48.64;102111.44;5061550;28;19927;-79
2022/05/05 12:28:14;;;;;;;;;;;;;;;18.05;48.53;102104.44;5055478;28;19921;-79
2022/05/05 12:30:40;;;;;;;;;;;;;;;18.02;48.93;102101.91;5054840;28;19938;-77
2022/05/05 12:33:07;;;;;;;;;;;;;;;18.03;48.60;102100.13;5053316;28;20017;-78
2022/05/05 12:35:36;;;;;;;;;;;;;;;18.03;48.97;102094.88;5054393;28;19924;-78
2022/05/05 12:38:02;;;;;;;;;;;;;;;17.96;47.96;102099.47;5053107;28;19924;-78
2022/05/05 12:40:27;;;;;;;;;;;;;;;17.95;48.45;102102.16;5056314;28;19920;-78
2022/05/05 12:43:00;;;;;;;;;;;;;;;17.95;48.34;102103.00;5055028;28;19927;-79
2022/05/05 12:45:26;;;;;;;;;;;;;;;17.94;48.40;102103.94;5056020;28;19924;-78
2022/05/05 12:47:52;;;;;;;;;;;;;;;17.95;48.40;102100.38;5035196;28;19975;-78
2022/05/05 12:50:35;;;;;;;;;;;;;;;17.94;48.49;102101.28;5052613;28;19974;-80
2022/05/05 13:01:21;;;;;;;;;;;;;;;17.81;48.29;102111.44;5057956;28;20421;-79
2022/05/05 13:03:47;;;;;;;;;;;;;;;17.82;48.73;102112.28;5055121;28;19931;-80
2022/05/05 13:06:13;;;;;;;;;;;;;;;17.84;48.66;102107.81;5041196;28;19916;-78
2022/05/05 13:08:38;;;;;;;;;;;;;;;17.85;48.31;102117.44;5056445;28;19978;-79
2022/05/05 13:11:03;;;;;;;;;;;;;;;17.89;48.45;102108.53;5059145;28;19920;-80
2022/05/05 13:13:28;;;;;;;;;;;;;;;17.94;48.90;102110.97;5057591;28;19916;-78
2022/05/05 13:15:54;;;;;;;;;;;;;;;17.96;48.60;102107.38;5057805;28;19920;-79
2022/05/05 13:18:19;;;;;;;;;;;;;;;17.99;47.94;102104.66;5056495;28;20283;-78
2022/05/05 13:20:44;;;;;;;;;;;;;;;18.03;48.85;102110.66;5057075;28;19920;-80
2022/05/05 13:23:09;;;;;;;;;;;;;;;18.01;47.89;102105.47;5054403;28;19921;-78
2022/05/05 13:25:35;;;;;;;;;;;;;;;18.01;47.75;102107.25;5057496;28;20427;-81
2022/05/05 13:28:01;;;;;;;;;;;;;;;18.03;47.88;102111.53;5039072;28;19916;-81
2022/05/05 13:30:27;;;;;;;;;;;;;;;18.09;46.81;102117.50;5058104;28;19917;-80
2022/05/05 13:32:52;;;;;;;;;;;;;;;18.13;47.92;102111.19;5057929;28;19923;-78
2022/05/05 13:35:18;;;;;;;;;;;;;;;18.19;47.83;102116.22;5055688;28;19923;-78
2022/05/05 13:37:43;;;;;;;;;;;;;;;18.24;47.80;102113.41;5056878;28;19983;-79